createdAt,value
2023-04-12T00:01:04.618Z,99956.53
2023-04-12T00:03:34.477Z,99954.88
2023-04-12T00:06:03.468Z,99954.13
2023-04-12T00:08:33.862Z,99955.03
2023-04-12T00:11:02.172Z,99953.28
2023-04-12T00:13:29.463Z,99952.34
2023-04-12T00:15:56.474Z,99955.69
2023-04-12T00:18:25.410Z,99953.13
2023-04-12T00:20:53.260Z,99951.38
2023-04-12T00:23:20.741Z,99954.00
2023-04-12T00:25:47.879Z,99948.81
2023-04-12T00:28:16.139Z,99947.03
2023-04-12T00:30:43.940Z,99947.72
2023-04-12T00:33:11.166Z,99955.28
2023-04-12T00:35:38.220Z,99950.06
2023-04-12T00:38:10.560Z,99952.63
2023-04-12T00:40:44.448Z,99943.13
2023-04-12T00:43:15.660Z,99944.56
2023-04-12T00:45:42.795Z,99946.06
2023-04-12T00:48:10.822Z,99943.28
2023-04-12T00:50:37.823Z,99943.13
2023-04-12T00:53:05.146Z,99941.25
2023-04-12T00:55:32.177Z,99947.16
2023-04-12T00:57:59.585Z,99944.50
2023-04-12T01:00:27.431Z,99940.97
2023-04-12T01:02:54.885Z,99945.16
2023-04-12T01:05:23.597Z,99938.19
2023-04-12T01:08:15.637Z,99936.41
2023-04-12T01:11:09.436Z,99937.22
2023-04-12T01:13:49.225Z,99936.44
2023-04-12T01:16:25.016Z,99940.97
2023-04-12T01:18:54.168Z,99941.13
2023-04-12T01:21:49.984Z,99933.50
2023-04-12T01:24:43.717Z,99932.75
2023-04-12T01:27:37.762Z,99934.34
2023-04-12T01:30:05.100Z,99928.22
2023-04-12T01:32:32.149Z,99929.91
2023-04-12T01:34:59.159Z,99928.19
2023-04-12T01:37:26.117Z,99923.03
2023-04-12T01:39:53.292Z,99924.78
2023-04-12T01:42:23.179Z,99922.31
2023-04-12T01:44:50.657Z,99919.88
2023-04-12T01:47:17.557Z,99922.47
2023-04-12T01:50:00.643Z,99919.88
2023-04-12T01:52:27.617Z,99917.97
2023-04-12T01:54:55.041Z,99916.09
2023-04-12T01:57:22.203Z,99914.97
2023-04-12T01:59:49.258Z,99906.25
2023-04-12T02:02:16.525Z,99909.50
2023-04-12T02:04:43.601Z,99902.53
2023-04-12T02:07:11.523Z,99906.72
2023-04-12T02:09:38.847Z,99910.06
2023-04-12T02:12:06.630Z,99910.78
2023-04-12T02:14:33.974Z,99918.41
2023-04-12T02:17:04.396Z,99917.59
2023-04-12T02:19:32.770Z,99914.91
2023-04-12T02:21:59.930Z,99921.63
2023-04-12T02:24:29.213Z,99913.00
2023-04-12T02:26:56.532Z,99916.41
2023-04-12T02:29:23.980Z,99914.69
2023-04-12T02:31:51.373Z,99916.34
2023-04-12T02:34:19.570Z,99918.81
2023-04-12T02:36:52.502Z,99917.69
2023-04-12T02:39:22.257Z,99916.63
2023-04-12T02:41:51.606Z,99917.31
2023-04-12T02:44:18.542Z,99920.53
2023-04-12T02:47:08.490Z,99919.53
2023-04-12T02:49:36.340Z,99921.19
2023-04-12T02:52:04.107Z,99927.16
2023-04-12T02:54:39.062Z,99927.97
2023-04-12T02:57:08.300Z,99926.31
2023-04-12T02:59:42.486Z,99925.41
2023-04-12T03:02:20.609Z,99921.94
2023-04-12T03:04:51.017Z,99929.84
2023-04-12T03:07:22.577Z,99928.47
2023-04-12T03:09:51.738Z,99927.66
2023-04-12T03:12:21.155Z,99930.38
2023-04-12T03:15:01.248Z,99934.84
2023-04-12T03:17:29.699Z,99935.91
2023-04-12T03:19:58.272Z,99932.78
2023-04-12T03:22:26.671Z,99933.03
2023-04-12T03:24:58.537Z,99932.34
2023-04-12T03:27:25.561Z,99935.00
2023-04-12T03:29:53.542Z,99932.50
2023-04-12T03:32:23.156Z,99925.75
2023-04-12T03:34:51.125Z,99933.47
2023-04-12T03:37:24.640Z,99936.09
2023-04-12T03:39:53.059Z,99938.59
2023-04-12T03:42:33.030Z,99938.47
2023-04-12T03:45:06.039Z,99940.81
2023-04-12T03:47:33.342Z,99940.66
2023-04-12T03:52:35.127Z,99943.56
2023-04-12T03:55:07.866Z,99939.50
2023-04-12T03:57:36.161Z,99934.66
2023-04-12T04:00:04.824Z,99941.94
2023-04-12T04:02:47.412Z,99938.81
2023-04-12T04:05:16.566Z,99940.06
2023-04-12T04:07:44.871Z,99946.53
2023-04-12T04:10:13.517Z,99943.47
2023-04-12T04:12:41.923Z,99951.53
2023-04-12T04:15:11.840Z,99946.66
2023-04-12T04:17:40.242Z,99944.34
2023-04-12T04:20:09.176Z,99938.56
2023-04-12T04:22:38.668Z,99943.00
2023-04-12T04:25:06.225Z,99936.31
2023-04-12T04:27:38.567Z,99941.69
2023-04-12T04:30:08.172Z,99947.16
2023-04-12T04:32:38.696Z,99943.97
2023-04-12T04:35:06.248Z,99932.16
2023-04-12T04:37:44.977Z,99938.38
2023-04-12T04:40:15.165Z,99942.91
2023-04-12T04:42:43.260Z,99948.28
2023-04-12T04:45:14.829Z,99941.50
2023-04-12T04:47:44.444Z,99945.13
2023-04-12T04:50:11.741Z,99942.66
2023-04-12T04:52:39.475Z,99947.97
2023-04-12T04:55:11.402Z,99936.88
2023-04-12T04:57:44.083Z,99935.25
2023-04-12T05:00:11.845Z,99948.28
2023-04-12T05:02:43.155Z,99948.38
2023-04-12T05:05:16.185Z,99946.72
2023-04-12T05:07:44.835Z,99945.91
2023-04-12T05:10:11.986Z,99951.97
2023-04-12T05:12:41.679Z,99939.88
2023-04-12T05:15:12.268Z,99945.97
2023-04-12T05:17:41.110Z,99947.66
2023-04-12T05:20:10.838Z,99950.22
2023-04-12T05:22:39.082Z,99948.47
2023-04-12T05:25:06.630Z,99948.44
2023-04-12T05:27:39.346Z,99948.38
2023-04-12T05:30:09.078Z,99950.88
2023-04-12T05:32:36.181Z,99962.03
2023-04-12T05:35:03.693Z,99950.59
2023-04-12T05:37:31.257Z,99955.72
2023-04-12T05:39:58.330Z,99950.41
2023-04-12T05:42:25.514Z,99952.88
2023-04-12T05:44:52.632Z,99951.91
2023-04-12T05:47:21.613Z,99950.94
2023-04-12T05:49:49.102Z,99939.53
2023-04-12T05:52:18.132Z,99946.31
2023-04-12T05:54:45.284Z,99945.25
2023-04-12T05:57:17.835Z,99939.09
2023-04-12T05:59:47.656Z,99937.19
2023-04-12T06:02:14.770Z,99937.91
2023-04-12T06:04:50.148Z,99941.22
2023-04-12T06:07:19.582Z,99945.31
2023-04-12T06:09:47.439Z,99939.13
2023-04-12T06:12:15.439Z,99945.94
2023-04-12T06:14:42.763Z,99944.81
2023-04-12T06:17:09.759Z,99945.41
2023-04-12T06:19:36.763Z,99946.03
2023-04-12T06:22:03.788Z,99948.34
2023-04-12T06:24:31.897Z,99940.13
2023-04-12T06:26:59.087Z,99943.38
2023-04-12T06:29:26.235Z,99935.38
2023-04-12T06:31:53.353Z,99949.13
2023-04-12T06:34:20.605Z,99940.22
2023-04-12T06:36:48.238Z,99944.44
2023-04-12T06:39:16.421Z,99944.88
2023-04-12T06:41:50.505Z,99942.13
2023-04-12T06:44:20.352Z,99941.03
2023-04-12T06:46:47.225Z,99941.72
2023-04-12T06:49:14.328Z,99935.34
2023-04-12T06:51:41.352Z,99940.22
2023-04-12T06:54:08.331Z,99938.25
2023-04-12T06:56:37.224Z,99936.22
2023-04-12T06:59:04.289Z,99939.28
2023-04-12T07:01:31.587Z,99939.06
2023-04-12T07:03:58.686Z,99942.19
2023-04-12T07:06:26.390Z,99940.13
2023-04-12T07:08:53.408Z,99932.09
2023-04-12T07:11:23.097Z,99936.94
2023-04-12T07:13:50.838Z,99933.41
2023-04-12T07:16:18.497Z,99933.91
2023-04-12T07:18:45.651Z,99935.47
2023-04-12T07:21:17.586Z,99926.28
2023-04-12T07:23:44.873Z,99932.88
2023-04-12T07:26:11.856Z,99931.03
2023-04-12T07:28:39.516Z,99918.72
2023-04-12T07:31:07.314Z,99926.34
2023-04-12T07:33:36.240Z,99923.41
2023-04-12T07:36:04.115Z,99914.38
2023-04-12T07:38:31.332Z,99919.25
2023-04-12T07:40:58.421Z,99917.25
2023-04-12T07:43:25.597Z,99909.38
2023-04-12T07:45:54.234Z,99909.19
2023-04-12T07:48:21.343Z,99910.06
2023-04-12T07:50:48.220Z,99903.31
2023-04-12T07:53:22.039Z,99899.78
2023-04-12T07:55:49.319Z,99906.75
2023-04-12T07:58:17.156Z,99906.47
2023-04-12T08:00:44.828Z,99908.13
2023-04-12T08:03:16.220Z,99908.00
2023-04-12T08:05:44.308Z,99898.28
2023-04-12T08:08:11.866Z,99893.81
2023-04-12T08:10:39.526Z,99894.53
2023-04-12T08:13:07.846Z,99905.34
2023-04-12T08:15:34.855Z,99893.16
2023-04-12T08:18:02.409Z,99908.13
2023-04-12T08:20:29.646Z,99898.47
2023-04-12T08:22:56.713Z,99895.66
2023-04-12T08:25:24.514Z,99892.81
2023-04-12T08:27:51.691Z,99893.22
2023-04-12T08:30:18.859Z,99893.75
2023-04-12T08:32:46.051Z,99894.19
2023-04-12T08:35:14.467Z,99896.88
2023-04-12T08:37:41.997Z,99884.81
2023-04-12T08:40:09.479Z,99893.31
2023-04-12T08:42:39.840Z,99882.59
2023-04-12T08:45:07.830Z,99882.72
2023-04-12T08:47:35.001Z,99883.25
2023-04-12T08:50:06.035Z,99895.69
2023-04-12T08:52:33.152Z,99879.91
2023-04-12T08:55:01.487Z,99880.72
2023-04-12T08:57:30.090Z,99873.00
2023-04-12T09:00:00.299Z,99873.13
2023-04-12T09:02:27.515Z,99868.72
2023-04-12T09:04:54.826Z,99877.47
2023-04-12T09:07:28.071Z,99870.50
2023-04-12T09:09:55.255Z,99861.78
2023-04-12T09:12:24.280Z,99866.22
2023-04-12T09:15:12.837Z,99859.78
2023-04-12T09:17:41.090Z,99857.53
2023-04-12T09:20:17.268Z,99857.66
2023-04-12T09:22:45.323Z,99844.50
2023-04-12T09:25:12.925Z,99842.66
2023-04-12T09:27:49.708Z,99844.97
2023-04-12T09:30:17.275Z,99836.94
2023-04-12T09:32:44.320Z,99836.75
2023-04-12T09:35:12.216Z,99837.53
2023-04-12T09:37:40.337Z,99827.72
2023-04-12T09:40:08.946Z,99825.28
2023-04-12T09:42:36.997Z,99824.06
2023-04-12T09:45:19.631Z,99817.75
2023-04-12T09:47:46.776Z,99823.50
2023-04-12T09:50:24.677Z,99830.88
2023-04-12T09:52:51.844Z,99823.84
2023-04-12T09:55:18.851Z,99816.06
2023-04-12T09:57:46.197Z,99819.66
2023-04-12T10:00:20.229Z,99823.09
2023-04-12T10:02:55.407Z,99824.78
2023-04-12T10:05:26.286Z,99806.16
2023-04-12T10:07:55.009Z,99808.00
2023-04-12T10:10:22.548Z,99815.84
2023-04-12T10:12:49.636Z,99812.53
2023-04-12T10:15:21.348Z,99818.72
2023-04-12T10:17:55.489Z,99807.75
2023-04-12T10:20:24.194Z,99811.72
2023-04-12T10:22:54.240Z,99800.84
2023-04-12T10:25:25.433Z,99802.25
2023-04-12T10:27:52.728Z,99798.97
2023-04-12T10:30:20.767Z,99790.25
2023-04-12T10:32:47.891Z,99788.31
2023-04-12T10:35:15.099Z,99780.16
2023-04-12T10:38:01.567Z,99769.63
2023-04-12T10:40:29.612Z,99761.97
2023-04-12T10:43:32.300Z,99754.34
2023-04-12T10:46:04.436Z,99768.41
2023-04-12T10:48:32.778Z,99767.38
2023-04-12T10:51:13.057Z,99771.84
2023-04-12T10:53:40.238Z,99768.66
2023-04-12T10:56:32.727Z,99769.03
2023-04-12T10:59:04.655Z,99765.53
2023-04-12T11:01:39.314Z,99765.06
2023-04-12T11:04:10.444Z,99764.81
2023-04-12T11:06:53.370Z,99759.91
2023-04-12T11:09:55.572Z,99746.75
2023-04-12T11:12:35.222Z,99740.59
2023-04-12T11:15:02.391Z,99734.41
2023-04-12T11:17:38.781Z,99737.88
2023-04-12T11:20:06.657Z,99734.75
2023-04-12T11:22:33.861Z,99730.03
2023-04-12T11:25:02.538Z,99724.38
2023-04-12T11:27:31.992Z,99730.56
2023-04-12T11:29:59.892Z,99727.34
2023-04-12T11:32:28.575Z,99734.25
2023-04-12T11:34:56.827Z,99725.38
2023-04-12T11:37:24.306Z,99722.88
2023-04-12T11:39:53.071Z,99720.63
2023-04-12T11:42:21.278Z,99713.53
2023-04-12T11:44:57.627Z,99704.44
2023-04-12T11:47:27.929Z,99706.22
2023-04-12T11:49:56.660Z,99712.69
2023-04-12T11:52:31.270Z,99708.59
2023-04-12T11:55:01.495Z,99700.13
2023-04-12T11:57:31.232Z,99692.16
2023-04-12T11:59:59.706Z,99690.16
2023-04-12T12:02:30.393Z,99690.44
2023-04-12T12:05:00.755Z,99683.84
2023-04-12T12:07:28.324Z,99678.66
2023-04-12T12:09:55.589Z,99678.25
2023-04-12T12:12:22.589Z,99676.34
2023-04-12T12:14:49.634Z,99683.19
2023-04-12T12:17:17.558Z,99671.44
2023-04-12T12:19:46.012Z,99673.00
2023-04-12T12:22:13.893Z,99671.22
2023-04-12T12:24:51.364Z,99672.88
2023-04-12T12:27:19.945Z,99658.25
2023-04-12T12:29:53.567Z,99657.66
2023-04-12T12:32:23.403Z,99656.25
2023-04-12T12:34:54.793Z,99654.41
2023-04-12T12:37:24.598Z,99641.59
2023-04-12T12:40:13.842Z,99647.00
2023-04-12T12:42:48.892Z,99646.72
2023-04-12T12:45:17.308Z,99641.03
2023-04-12T12:48:03.330Z,99644.97
2023-04-12T12:50:31.731Z,99636.81
2023-04-12T12:53:00.836Z,99629.88
2023-04-12T12:55:28.630Z,99635.53
2023-04-12T12:58:07.496Z,99631.53
2023-04-12T13:00:35.576Z,99633.41
2023-04-12T13:03:03.416Z,99629.84
2023-04-12T13:05:30.985Z,99618.06
2023-04-12T13:07:58.444Z,99620.31
2023-04-12T13:10:27.216Z,99612.78
2023-04-12T13:12:54.467Z,99618.03
2023-04-12T13:15:24.314Z,99610.53
2023-04-12T13:17:52.606Z,99620.03
2023-04-12T13:20:19.828Z,99614.22
2023-04-12T13:22:46.791Z,99617.84
2023-04-12T13:25:14.070Z,99616.84
2023-04-12T13:27:41.257Z,99610.22
2023-04-12T13:30:08.722Z,99609.66
2023-04-12T13:32:36.037Z,99610.28
2023-04-12T13:35:04.024Z,99602.59
2023-04-12T13:37:31.617Z,99609.75
2023-04-12T13:39:58.589Z,99602.13
2023-04-12T13:42:25.766Z,99603.75
2023-04-12T13:44:52.942Z,99603.88
2023-04-12T13:47:20.100Z,99604.84
2023-04-12T13:49:47.162Z,99596.63
2023-04-12T13:52:14.127Z,99601.38
2023-04-12T13:54:41.309Z,99597.44
2023-04-12T13:57:08.363Z,99595.97
2023-04-12T13:59:35.635Z,99604.03
2023-04-12T14:02:02.797Z,99599.94
2023-04-12T14:04:30.958Z,99596.97
2023-04-12T14:06:59.097Z,99598.09
2023-04-12T14:09:27.412Z,99602.59
2023-04-12T14:11:58.083Z,99602.69
2023-04-12T14:14:25.709Z,99601.19
2023-04-12T14:16:53.801Z,99600.38
2023-04-12T14:19:21.363Z,99600.59
2023-04-12T14:21:48.614Z,99593.88
2023-04-12T14:24:16.347Z,99599.19
2023-04-12T14:26:43.835Z,99598.38
2023-04-12T14:29:11.117Z,99601.06
2023-04-12T14:31:38.594Z,99603.81
2023-04-12T14:34:06.403Z,99605.72
2023-04-12T14:36:33.566Z,99606.00
2023-04-12T14:39:03.739Z,99603.47
2023-04-12T14:41:31.796Z,99600.88
2023-04-12T14:44:02.035Z,99597.50
2023-04-12T14:46:29.377Z,99595.81
2023-04-12T14:48:57.392Z,99596.78
2023-04-12T14:51:24.655Z,99589.03
2023-04-12T14:53:51.654Z,99589.03
2023-04-12T14:56:24.643Z,99592.63
2023-04-12T14:58:56.018Z,99585.91
2023-04-12T15:01:23.947Z,99581.69
2023-04-12T15:03:52.505Z,99588.78
2023-04-12T15:06:22.024Z,99585.38
2023-04-12T15:08:54.386Z,99578.59
2023-04-12T15:11:27.263Z,99577.84
2023-04-12T15:13:55.298Z,99575.31
2023-04-12T15:16:23.118Z,99575.47
2023-04-12T15:18:50.670Z,99579.06
2023-04-12T15:21:17.826Z,99572.19
2023-04-12T15:23:45.124Z,99566.16
2023-04-12T15:26:14.199Z,99564.53
2023-04-12T15:28:41.842Z,99571.56
2023-04-12T15:31:09.691Z,99565.56
2023-04-12T15:33:37.546Z,99568.22
2023-04-12T15:36:05.038Z,99569.25
2023-04-12T15:38:32.185Z,99575.44
2023-04-12T15:41:01.776Z,99571.22
2023-04-12T15:43:29.040Z,99567.88
2023-04-12T15:45:56.790Z,99571.56
2023-04-12T15:48:24.614Z,99565.66
2023-04-12T15:50:52.266Z,99561.59
2023-04-12T15:53:20.383Z,99567.00
2023-04-12T15:55:47.902Z,99562.84
2023-04-12T15:58:14.872Z,99566.56
2023-04-12T16:00:42.523Z,99567.66
2023-04-12T16:03:10.145Z,99561.78
2023-04-12T16:05:37.406Z,99571.59
2023-04-12T16:08:04.377Z,99569.28
2023-04-12T16:10:32.248Z,99572.88
2023-04-12T16:12:59.358Z,99573.13
2023-04-12T16:15:26.804Z,99571.63
2023-04-12T16:17:55.596Z,99568.34
2023-04-12T16:20:23.101Z,99571.06
2023-04-12T16:22:54.316Z,99569.50
2023-04-12T16:25:22.533Z,99568.84
2023-04-12T16:27:49.594Z,99565.63
2023-04-12T16:30:17.202Z,99569.25
2023-04-12T16:32:47.469Z,99570.31
2023-04-12T16:35:15.261Z,99566.13
2023-04-12T16:37:43.272Z,99565.41
2023-04-12T16:40:12.825Z,99563.81
2023-04-12T16:42:41.842Z,99569.13
2023-04-12T16:45:09.683Z,99568.47
2023-04-12T16:47:37.467Z,99573.00
2023-04-12T16:50:05.022Z,99571.38
2023-04-12T16:52:32.169Z,99572.34
2023-04-12T16:55:00.800Z,99574.22
2023-04-12T16:57:28.204Z,99578.63
2023-04-12T16:59:55.621Z,99568.25
2023-04-12T17:02:23.064Z,99577.03
2023-04-12T17:04:50.481Z,99577.09
2023-04-12T17:07:17.744Z,99579.75
2023-04-12T17:09:44.758Z,99579.78
2023-04-12T17:12:12.664Z,99584.97
2023-04-12T17:14:39.827Z,99588.44
2023-04-12T17:17:07.195Z,99586.72
2023-04-12T17:19:34.530Z,99589.31
2023-04-12T17:22:01.856Z,99586.75
2023-04-12T17:24:29.348Z,99592.06
2023-04-12T17:26:57.614Z,99586.09
2023-04-12T17:29:24.979Z,99591.34
2023-04-12T17:31:54.373Z,99595.75
2023-04-12T17:34:22.344Z,99594.13
2023-04-12T17:36:49.469Z,99601.97
2023-04-12T17:39:16.769Z,99599.41
2023-04-12T17:41:43.875Z,99600.25
2023-04-12T17:44:10.940Z,99607.19
2023-04-12T17:46:38.086Z,99602.91
2023-04-12T17:49:06.848Z,99602.97
2023-04-12T17:51:33.993Z,99600.41
2023-04-12T17:54:03.638Z,99599.59
2023-04-12T17:56:30.915Z,99607.47
2023-04-12T17:58:58.500Z,99604.06
2023-04-12T18:01:25.561Z,99612.72
2023-04-12T18:03:52.973Z,99614.47
2023-04-12T18:06:20.551Z,99619.69
2023-04-12T18:08:47.643Z,99622.31
2023-04-12T18:11:14.917Z,99622.38
2023-04-12T18:13:42.096Z,99620.69
2023-04-12T18:16:09.354Z,99627.66
2023-04-12T18:18:36.605Z,99624.25
2023-04-12T18:21:05.501Z,99623.41
2023-04-12T18:23:32.576Z,99627.75
2023-04-12T18:25:59.688Z,99626.91
2023-04-12T18:28:26.690Z,99633.84
2023-04-12T18:30:56.108Z,99627.81
2023-04-12T18:33:24.379Z,99628.69
2023-04-12T18:35:51.472Z,99627.88
2023-04-12T18:38:18.814Z,99620.09
2023-04-12T18:40:46.000Z,99622.72
2023-04-12T18:43:12.998Z,99615.81
2023-04-12T18:45:40.937Z,99609.78
2023-04-12T18:48:08.756Z,99608.09
2023-04-12T18:50:39.403Z,99605.47
2023-04-12T18:53:07.216Z,99599.47
2023-04-12T18:55:34.412Z,99602.94
2023-04-12T18:58:01.875Z,99602.94
2023-04-12T19:00:29.088Z,99600.34
2023-04-12T19:02:56.352Z,99593.44
2023-04-12T19:05:24.193Z,99602.06
2023-04-12T19:07:52.058Z,99602.94
2023-04-12T19:10:19.226Z,99600.34
2023-04-12T19:12:46.285Z,99597.78
2023-04-12T19:15:13.408Z,99601.22
2023-04-12T19:17:40.586Z,99596.91
2023-04-12T19:20:09.081Z,99599.53
2023-04-12T19:22:36.361Z,99595.19
2023-04-12T19:25:03.681Z,99594.34
2023-04-12T19:27:30.757Z,99600.38
2023-04-12T19:29:58.320Z,99597.78
2023-04-12T19:32:25.703Z,99590.03
2023-04-12T19:34:52.807Z,99595.19
2023-04-12T19:37:19.997Z,99591.75
2023-04-12T19:39:47.098Z,99594.34
2023-04-12T19:42:16.838Z,99590.03
2023-04-12T19:44:43.907Z,99578.81
2023-04-12T19:47:11.040Z,99583.13
2023-04-12T19:49:38.096Z,99579.69
2023-04-12T19:52:05.852Z,99585.72
2023-04-12T19:54:33.494Z,99582.25
2023-04-12T19:57:00.504Z,99585.72
2023-04-12T19:59:30.855Z,99574.47
2023-04-12T20:01:58.702Z,99577.06
2023-04-12T20:04:26.598Z,99581.38
2023-04-12T20:06:53.835Z,99573.63
2023-04-12T20:09:24.107Z,99579.66
2023-04-12T20:11:51.179Z,99582.25
2023-04-12T20:14:18.213Z,99589.13
2023-04-12T20:16:45.592Z,99589.13
2023-04-12T20:19:13.290Z,99591.72
2023-04-12T20:21:40.420Z,99590.84
2023-04-12T20:24:08.815Z,99591.69
2023-04-12T20:26:36.397Z,99587.41
2023-04-12T20:29:05.364Z,99583.97
2023-04-12T20:31:35.372Z,99582.25
2023-04-12T20:34:02.389Z,99586.56
2023-04-12T20:36:29.725Z,99583.97
2023-04-12T20:38:57.032Z,99586.56
2023-04-12T20:41:24.360Z,99594.28
2023-04-12T20:43:51.676Z,99588.25
2023-04-12T20:46:25.870Z,99595.16
2023-04-12T20:48:56.534Z,99591.69
2023-04-12T20:51:24.224Z,99595.16
2023-04-12T20:53:51.787Z,99596.00
2023-04-12T20:56:18.956Z,99591.69
2023-04-12T20:58:48.501Z,99591.69
2023-04-12T21:01:15.752Z,99588.25
2023-04-12T21:03:43.384Z,99592.56
2023-04-12T21:06:11.048Z,99598.59
2023-04-12T21:08:39.002Z,99595.97
2023-04-12T21:11:06.298Z,99596.00
2023-04-12T21:13:34.708Z,99591.69
2023-04-12T21:16:02.529Z,99589.97
2023-04-12T21:18:32.303Z,99583.06
2023-04-12T21:20:59.802Z,99579.56
2023-04-12T21:23:26.865Z,99591.59
2023-04-12T21:25:54.114Z,99584.69
2023-04-12T21:28:21.055Z,99589.03
2023-04-12T21:30:49.568Z,99591.59
2023-04-12T21:33:24.714Z,99587.28
2023-04-12T21:35:54.783Z,99591.63
2023-04-12T21:38:22.389Z,99579.56
2023-04-12T21:40:49.616Z,99581.28
2023-04-12T21:46:10.093Z,99587.31
2023-04-12T21:48:37.167Z,99583.00
2023-04-12T21:51:04.274Z,99586.41
2023-04-12T21:53:31.246Z,99579.53
2023-04-12T21:55:59.094Z,99580.41
2023-04-12T21:58:26.044Z,99586.44
2023-04-12T22:00:53.484Z,99578.69
2023-04-12T22:03:20.560Z,99582.13
2023-04-12T22:06:00.893Z,99576.94
2023-04-12T22:08:32.988Z,99577.78
2023-04-12T22:11:00.463Z,99579.50
2023-04-12T22:13:27.597Z,99579.47
2023-04-12T22:15:54.579Z,99588.91
2023-04-12T22:18:22.108Z,99581.91
2023-04-12T22:20:49.083Z,99577.53
2023-04-12T22:23:18.232Z,99574.09
2023-04-12T22:25:46.042Z,99579.22
2023-04-12T22:28:12.964Z,99576.59
2023-04-12T22:30:39.959Z,99574.88
2023-04-12T22:33:08.312Z,99573.19
2023-04-12T22:35:37.254Z,99574.94
2023-04-12T22:38:04.962Z,99574.06
2023-04-12T22:40:31.925Z,99571.50
2023-04-12T22:42:58.897Z,99575.84
2023-04-12T22:45:25.845Z,99578.41
2023-04-12T22:47:53.105Z,99564.66
2023-04-12T22:50:20.150Z,99571.56
2023-04-12T22:52:49.977Z,99568.09
2023-04-12T22:55:20.573Z,99572.41
2023-04-12T22:57:47.539Z,99565.50
2023-04-12T23:00:17.012Z,99570.66
2023-04-12T23:02:46.222Z,99567.19
2023-04-12T23:05:14.146Z,99574.94
2023-04-12T23:07:41.537Z,99562.91
2023-04-12T23:10:09.408Z,99568.03
2023-04-12T23:12:37.425Z,99568.91
2023-04-12T23:15:05.780Z,99563.72
2023-04-12T23:17:33.885Z,99564.59
2023-04-12T23:20:01.966Z,99561.09
2023-04-12T23:22:48.588Z,99561.91
2023-04-12T23:25:24.438Z,99561.00
2023-04-12T23:27:51.747Z,99557.50
2023-04-12T23:30:19.003Z,99556.59
2023-04-12T23:32:46.292Z,99560.84
2023-04-12T23:35:14.467Z,99557.34
2023-04-12T23:37:41.857Z,99553.84
2023-04-12T23:40:14.890Z,99551.28
2023-04-12T23:42:43.476Z,99548.69
2023-04-12T23:45:10.988Z,99550.44
2023-04-12T23:47:38.253Z,99546.16
2023-04-12T23:50:06.339Z,99551.25
2023-04-12T23:52:33.389Z,99547.78
2023-04-12T23:55:00.456Z,99549.47
2023-04-12T23:57:27.417Z,99550.31
2023-04-12T23:59:54.449Z,99549.44
